sensor_id;sensor_type;location;lat;lon;timestamp;P1;durP1;ratioP1;P2;durP2;ratioP2
21741;SDS011;11033;47.490;11.116;2023-07-24T00:01:04;16.03;;;14.40;;
21741;SDS011;11033;47.490;11.116;2023-07-24T00:03:29;17.30;;;14.43;;
21741;SDS011;11033;47.490;11.116;2023-07-24T00:05:57;15.00;;;13.52;;
21741;SDS011;11033;47.490;11.116;2023-07-24T00:08:23;15.20;;;13.70;;
21741;SDS011;11033;47.490;11.116;2023-07-24T00:10:48;14.40;;;13.00;;
21741;SDS011;11033;47.490;11.116;2023-07-24T00:13:14;16.88;;;15.23;;
21741;SDS011;11033;47.490;11.116;2023-07-24T00:15:39;17.90;;;14.90;;
21741;SDS011;11033;47.490;11.116;2023-07-24T00:18:04;15.07;;;13.45;;
21741;SDS011;11033;47.490;11.116;2023-07-24T00:20:30;16.20;;;14.33;;
21741;SDS011;11033;47.490;11.116;2023-07-24T00:22:55;16.87;;;13.97;;
21741;SDS011;11033;47.490;11.116;2023-07-24T00:25:20;16.97;;;15.10;;
21741;SDS011;11033;47.490;11.116;2023-07-24T00:27:45;16.23;;;14.53;;
21741;SDS011;11033;47.490;11.116;2023-07-24T00:30:10;15.97;;;14.27;;
21741;SDS011;11033;47.490;11.116;2023-07-24T00:32:36;15.35;;;13.75;;
21741;SDS011;11033;47.490;11.116;2023-07-24T00:35:01;16.77;;;14.73;;
21741;SDS011;11033;47.490;11.116;2023-07-24T00:37:26;17.83;;;14.97;;
21741;SDS011;11033;47.490;11.116;2023-07-24T00:39:52;16.50;;;14.70;;
21741;SDS011;11033;47.490;11.116;2023-07-24T00:42:17;16.83;;;15.13;;
21741;SDS011;11033;47.490;11.116;2023-07-24T00:44:42;17.10;;;14.73;;
21741;SDS011;11033;47.490;11.116;2023-07-24T00:47:07;16.07;;;14.47;;
21741;SDS011;11033;47.490;11.116;2023-07-24T00:49:33;16.15;;;14.27;;
21741;SDS011;11033;47.490;11.116;2023-07-24T00:51:58;20.42;;;15.93;;
21741;SDS011;11033;47.490;11.116;2023-07-24T00:54:23;15.20;;;13.70;;
21741;SDS011;11033;47.490;11.116;2023-07-24T00:56:49;16.02;;;14.27;;
21741;SDS011;11033;47.490;11.116;2023-07-24T00:59:15;15.10;;;13.45;;
21741;SDS011;11033;47.490;11.116;2023-07-24T01:01:40;16.90;;;14.60;;
21741;SDS011;11033;47.490;11.116;2023-07-24T01:04:06;16.45;;;14.77;;
21741;SDS011;11033;47.490;11.116;2023-07-24T01:06:32;21.20;;;14.85;;
21741;SDS011;11033;47.490;11.116;2023-07-24T01:08:57;16.40;;;14.70;;
21741;SDS011;11033;47.490;11.116;2023-07-24T01:11:27;19.47;;;15.40;;
21741;SDS011;11033;47.490;11.116;2023-07-24T01:13:57;20.40;;;15.70;;
21741;SDS011;11033;47.490;11.116;2023-07-24T01:16:24;16.90;;;15.18;;
21741;SDS011;11033;47.490;11.116;2023-07-24T01:18:51;20.13;;;15.50;;
21741;SDS011;11033;47.490;11.116;2023-07-24T01:21:17;18.42;;;15.93;;
21741;SDS011;11033;47.490;11.116;2023-07-24T01:23:52;19.60;;;15.50;;
21741;SDS011;11033;47.490;11.116;2023-07-24T01:26:20;17.52;;;15.23;;
21741;SDS011;11033;47.490;11.116;2023-07-24T01:28:46;16.42;;;14.73;;
21741;SDS011;11033;47.490;11.116;2023-07-24T01:31:11;17.25;;;15.23;;
21741;SDS011;11033;47.490;11.116;2023-07-24T01:33:36;16.30;;;14.52;;
21741;SDS011;11033;47.490;11.116;2023-07-24T01:36:03;17.35;;;14.65;;
21741;SDS011;11033;47.490;11.116;2023-07-24T01:38:29;18.77;;;15.65;;
21741;SDS011;11033;47.490;11.116;2023-07-24T01:40:56;20.45;;;14.85;;
21741;SDS011;11033;47.490;11.116;2023-07-24T01:43:22;18.00;;;15.80;;
21741;SDS011;11033;47.490;11.116;2023-07-24T01:45:47;17.20;;;14.98;;
21741;SDS011;11033;47.490;11.116;2023-07-24T01:48:12;16.80;;;14.97;;
21741;SDS011;11033;47.490;11.116;2023-07-24T01:50:37;18.00;;;14.80;;
21741;SDS011;11033;47.490;11.116;2023-07-24T01:53:03;16.63;;;14.93;;
21741;SDS011;11033;47.490;11.116;2023-07-24T01:55:28;16.77;;;14.97;;
21741;SDS011;11033;47.490;11.116;2023-07-24T01:57:53;18.60;;;15.33;;
21741;SDS011;11033;47.490;11.116;2023-07-24T02:00:18;19.17;;;15.23;;
21741;SDS011;11033;47.490;11.116;2023-07-24T02:02:43;18.10;;;16.17;;
21741;SDS011;11033;47.490;11.116;2023-07-24T02:05:08;21.67;;;15.80;;
21741;SDS011;11033;47.490;11.116;2023-07-24T02:07:34;19.47;;;16.43;;
21741;SDS011;11033;47.490;11.116;2023-07-24T02:09:59;18.30;;;15.63;;
21741;SDS011;11033;47.490;11.116;2023-07-24T02:12:24;20.77;;;15.83;;
21741;SDS011;11033;47.490;11.116;2023-07-24T02:14:49;18.90;;;16.30;;
21741;SDS011;11033;47.490;11.116;2023-07-24T02:17:16;18.30;;;15.93;;
21741;SDS011;11033;47.490;11.116;2023-07-24T02:19:41;18.77;;;16.73;;
21741;SDS011;11033;47.490;11.116;2023-07-24T02:22:06;17.73;;;15.83;;
21741;SDS011;11033;47.490;11.116;2023-07-24T02:24:32;21.17;;;17.47;;
21741;SDS011;11033;47.490;11.116;2023-07-24T02:26:57;18.33;;;16.40;;
21741;SDS011;11033;47.490;11.116;2023-07-24T02:29:22;17.63;;;15.73;;
21741;SDS011;11033;47.490;11.116;2023-07-24T02:31:47;19.67;;;16.80;;
21741;SDS011;11033;47.490;11.116;2023-07-24T02:34:13;21.17;;;16.60;;
21741;SDS011;11033;47.490;11.116;2023-07-24T02:36:38;23.30;;;17.60;;
21741;SDS011;11033;47.490;11.116;2023-07-24T02:39:04;20.85;;;16.58;;
21741;SDS011;11033;47.490;11.116;2023-07-24T02:41:29;18.17;;;16.13;;
21741;SDS011;11033;47.490;11.116;2023-07-24T02:43:54;21.87;;;17.57;;
21741;SDS011;11033;47.490;11.116;2023-07-24T02:46:19;21.70;;;17.13;;
21741;SDS011;11033;47.490;11.116;2023-07-24T02:48:44;19.50;;;17.40;;
21741;SDS011;11033;47.490;11.116;2023-07-24T02:51:09;18.60;;;16.60;;
21741;SDS011;11033;47.490;11.116;2023-07-24T02:53:34;20.83;;;17.53;;
21741;SDS011;11033;47.490;11.116;2023-07-24T02:56:01;22.90;;;19.03;;
21741;SDS011;11033;47.490;11.116;2023-07-24T02:58:26;25.17;;;18.70;;
21741;SDS011;11033;47.490;11.116;2023-07-24T03:00:51;21.80;;;17.97;;
21741;SDS011;11033;47.490;11.116;2023-07-24T03:03:16;21.87;;;17.33;;
21741;SDS011;11033;47.490;11.116;2023-07-24T03:05:41;20.23;;;17.87;;
21741;SDS011;11033;47.490;11.116;2023-07-24T03:08:06;21.83;;;17.43;;
21741;SDS011;11033;47.490;11.116;2023-07-24T03:10:32;20.33;;;18.07;;
21741;SDS011;11033;47.490;11.116;2023-07-24T03:12:57;26.03;;;18.97;;
21741;SDS011;11033;47.490;11.116;2023-07-24T03:15:22;21.70;;;18.07;;
21741;SDS011;11033;47.490;11.116;2023-07-24T03:17:47;21.97;;;17.57;;
21741;SDS011;11033;47.490;11.116;2023-07-24T03:20:16;21.73;;;17.73;;
21741;SDS011;11033;47.490;11.116;2023-07-24T03:22:42;21.58;;;17.20;;
21741;SDS011;11033;47.490;11.116;2023-07-24T03:25:07;23.48;;;18.67;;
21741;SDS011;11033;47.490;11.116;2023-07-24T03:27:32;26.13;;;18.75;;
21741;SDS011;11033;47.490;11.116;2023-07-24T03:29:58;20.83;;;16.87;;
21741;SDS011;11033;47.490;11.116;2023-07-24T03:32:23;19.17;;;16.93;;
21741;SDS011;11033;47.490;11.116;2023-07-24T03:34:48;24.07;;;18.90;;
21741;SDS011;11033;47.490;11.116;2023-07-24T03:37:13;22.20;;;18.90;;
21741;SDS011;11033;47.490;11.116;2023-07-24T03:39:38;22.08;;;18.35;;
21741;SDS011;11033;47.490;11.116;2023-07-24T03:42:04;25.47;;;18.47;;
21741;SDS011;11033;47.490;11.116;2023-07-24T03:44:29;21.27;;;17.70;;
21741;SDS011;11033;47.490;11.116;2023-07-24T03:46:54;21.10;;;18.83;;
21741;SDS011;11033;47.490;11.116;2023-07-24T03:49:19;20.77;;;18.03;;
21741;SDS011;11033;47.490;11.116;2023-07-24T03:51:44;20.13;;;17.97;;
21741;SDS011;11033;47.490;11.116;2023-07-24T03:54:10;20.50;;;18.27;;
21741;SDS011;11033;47.490;11.116;2023-07-24T03:56:35;21.87;;;17.73;;
21741;SDS011;11033;47.490;11.116;2023-07-24T03:59:00;21.93;;;18.03;;
21741;SDS011;11033;47.490;11.116;2023-07-24T04:01:25;24.27;;;18.97;;
21741;SDS011;11033;47.490;11.116;2023-07-24T04:03:51;19.30;;;17.13;;
21741;SDS011;11033;47.490;11.116;2023-07-24T04:06:16;21.88;;;18.45;;
21741;SDS011;11033;47.490;11.116;2023-07-24T04:08:41;20.77;;;18.57;;
21741;SDS011;11033;47.490;11.116;2023-07-24T04:11:06;26.87;;;18.53;;
21741;SDS011;11033;47.490;11.116;2023-07-24T04:13:31;22.73;;;19.57;;
21741;SDS011;11033;47.490;11.116;2023-07-24T04:15:57;21.00;;;18.67;;
21741;SDS011;11033;47.490;11.116;2023-07-24T04:18:24;21.48;;;17.55;;
21741;SDS011;11033;47.490;11.116;2023-07-24T04:20:49;22.37;;;18.70;;
21741;SDS011;11033;47.490;11.116;2023-07-24T04:23:14;20.77;;;17.83;;
21741;SDS011;11033;47.490;11.116;2023-07-24T04:25:39;23.10;;;19.00;;
21741;SDS011;11033;47.490;11.116;2023-07-24T04:28:04;21.53;;;18.17;;
21741;SDS011;11033;47.490;11.116;2023-07-24T04:30:30;21.83;;;18.13;;
21741;SDS011;11033;47.490;11.116;2023-07-24T04:32:55;20.43;;;17.77;;
21741;SDS011;11033;47.490;11.116;2023-07-24T04:35:20;22.47;;;18.07;;
21741;SDS011;11033;47.490;11.116;2023-07-24T04:37:45;21.10;;;18.43;;
21741;SDS011;11033;47.490;11.116;2023-07-24T04:40:10;23.37;;;17.33;;
21741;SDS011;11033;47.490;11.116;2023-07-24T04:42:36;24.73;;;18.80;;
21741;SDS011;11033;47.490;11.116;2023-07-24T04:45:01;23.97;;;17.70;;
21741;SDS011;11033;47.490;11.116;2023-07-24T04:47:26;27.80;;;18.80;;
21741;SDS011;11033;47.490;11.116;2023-07-24T04:49:51;23.43;;;18.97;;
21741;SDS011;11033;47.490;11.116;2023-07-24T04:52:16;22.80;;;19.47;;
21741;SDS011;11033;47.490;11.116;2023-07-24T04:54:42;23.53;;;19.03;;
21741;SDS011;11033;47.490;11.116;2023-07-24T04:57:07;21.80;;;18.60;;
21741;SDS011;11033;47.490;11.116;2023-07-24T04:59:32;22.23;;;19.07;;
21741;SDS011;11033;47.490;11.116;2023-07-24T05:01:57;24.87;;;19.67;;
21741;SDS011;11033;47.490;11.116;2023-07-24T05:04:22;24.08;;;19.35;;
21741;SDS011;11033;47.490;11.116;2023-07-24T05:06:48;21.20;;;17.70;;
21741;SDS011;11033;47.490;11.116;2023-07-24T05:09:13;24.83;;;19.00;;
21741;SDS011;11033;47.490;11.116;2023-07-24T05:11:39;21.35;;;18.85;;
21741;SDS011;11033;47.490;11.116;2023-07-24T05:14:04;22.13;;;19.43;;
21741;SDS011;11033;47.490;11.116;2023-07-24T05:16:29;21.67;;;19.17;;
21741;SDS011;11033;47.490;11.116;2023-07-24T05:18:56;24.98;;;18.85;;
21741;SDS011;11033;47.490;11.116;2023-07-24T05:21:21;20.50;;;18.40;;
21741;SDS011;11033;47.490;11.116;2023-07-24T05:23:46;20.80;;;18.40;;
21741;SDS011;11033;47.490;11.116;2023-07-24T05:26:11;29.20;;;18.50;;
21741;SDS011;11033;47.490;11.116;2023-07-24T05:28:36;25.90;;;18.83;;
21741;SDS011;11033;47.490;11.116;2023-07-24T05:31:02;23.50;;;19.03;;
21741;SDS011;11033;47.490;11.116;2023-07-24T05:33:28;23.73;;;19.20;;
21741;SDS011;11033;47.490;11.116;2023-07-24T05:35:57;19.95;;;17.80;;
21741;SDS011;11033;47.490;11.116;2023-07-24T05:38:22;22.10;;;18.02;;
21741;SDS011;11033;47.490;11.116;2023-07-24T05:40:53;24.57;;;18.77;;
21741;SDS011;11033;47.490;11.116;2023-07-24T05:43:18;20.00;;;17.85;;
21741;SDS011;11033;47.490;11.116;2023-07-24T05:45:43;22.80;;;18.80;;
21741;SDS011;11033;47.490;11.116;2023-07-24T05:48:09;22.87;;;18.83;;
21741;SDS011;11033;47.490;11.116;2023-07-24T05:50:34;23.03;;;18.03;;
21741;SDS011;11033;47.490;11.116;2023-07-24T05:52:59;19.93;;;17.77;;
21741;SDS011;11033;47.490;11.116;2023-07-24T05:55:24;20.10;;;17.20;;
21741;SDS011;11033;47.490;11.116;2023-07-24T05:57:49;19.77;;;17.67;;
21741;SDS011;11033;47.490;11.116;2023-07-24T06:00:15;20.42;;;17.75;;
21741;SDS011;11033;47.490;11.116;2023-07-24T06:02:40;22.73;;;18.55;;
21741;SDS011;11033;47.490;11.116;2023-07-24T06:05:05;23.33;;;19.17;;
21741;SDS011;11033;47.490;11.116;2023-07-24T06:07:30;21.80;;;18.40;;
21741;SDS011;11033;47.490;11.116;2023-07-24T06:09:55;22.80;;;19.20;;
21741;SDS011;11033;47.490;11.116;2023-07-24T06:12:21;21.27;;;18.97;;
21741;SDS011;11033;47.490;11.116;2023-07-24T06:14:46;23.20;;;18.93;;
21741;SDS011;11033;47.490;11.116;2023-07-24T06:17:11;26.10;;;19.30;;
21741;SDS011;11033;47.490;11.116;2023-07-24T06:19:36;21.13;;;18.93;;
21741;SDS011;11033;47.490;11.116;2023-07-24T06:22:01;21.43;;;18.57;;
21741;SDS011;11033;47.490;11.116;2023-07-24T06:24:26;23.70;;;18.23;;
21741;SDS011;11033;47.490;11.116;2023-07-24T06:26:52;21.30;;;18.63;;
21741;SDS011;11033;47.490;11.116;2023-07-24T06:29:17;20.00;;;17.90;;
21741;SDS011;11033;47.490;11.116;2023-07-24T06:31:42;22.50;;;19.87;;
21741;SDS011;11033;47.490;11.116;2023-07-24T06:34:07;21.27;;;19.03;;
21741;SDS011;11033;47.490;11.116;2023-07-24T06:36:32;21.87;;;19.57;;
21741;SDS011;11033;47.490;11.116;2023-07-24T06:38:58;22.20;;;19.20;;
21741;SDS011;11033;47.490;11.116;2023-07-24T06:41:23;21.23;;;19.07;;
21741;SDS011;11033;47.490;11.116;2023-07-24T06:43:48;21.85;;;18.67;;
21741;SDS011;11033;47.490;11.116;2023-07-24T06:46:14;21.90;;;19.70;;
21741;SDS011;11033;47.490;11.116;2023-07-24T06:48:39;22.30;;;19.23;;
21741;SDS011;11033;47.490;11.116;2023-07-24T06:51:04;24.50;;;19.93;;
21741;SDS011;11033;47.490;11.116;2023-07-24T06:53:29;21.30;;;19.00;;
21741;SDS011;11033;47.490;11.116;2023-07-24T06:55:54;21.77;;;18.87;;
21741;SDS011;11033;47.490;11.116;2023-07-24T06:58:19;20.47;;;18.27;;
21741;SDS011;11033;47.490;11.116;2023-07-24T07:00:45;22.73;;;18.73;;
21741;SDS011;11033;47.490;11.116;2023-07-24T07:03:10;20.87;;;18.77;;
21741;SDS011;11033;47.490;11.116;2023-07-24T07:05:35;21.53;;;19.33;;
21741;SDS011;11033;47.490;11.116;2023-07-24T07:08:00;22.93;;;19.97;;
21741;SDS011;11033;47.490;11.116;2023-07-24T07:10:25;23.90;;;19.97;;
21741;SDS011;11033;47.490;11.116;2023-07-24T07:12:51;24.13;;;18.13;;
21741;SDS011;11033;47.490;11.116;2023-07-24T07:15:16;23.67;;;19.17;;
21741;SDS011;11033;47.490;11.116;2023-07-24T07:17:41;22.03;;;18.67;;
21741;SDS011;11033;47.490;11.116;2023-07-24T07:20:07;22.98;;;17.90;;
21741;SDS011;11033;47.490;11.116;2023-07-24T07:22:32;22.27;;;18.67;;
21741;SDS011;11033;47.490;11.116;2023-07-24T07:24:57;25.60;;;19.27;;
21741;SDS011;11033;47.490;11.116;2023-07-24T07:27:22;23.07;;;19.27;;
21741;SDS011;11033;47.490;11.116;2023-07-24T07:29:47;37.60;;;32.70;;
21741;SDS011;11033;47.490;11.116;2023-07-24T07:32:13;27.60;;;22.87;;
21741;SDS011;11033;47.490;11.116;2023-07-24T07:34:38;23.33;;;20.73;;
21741;SDS011;11033;47.490;11.116;2023-07-24T07:37:04;23.13;;;20.25;;
21741;SDS011;11033;47.490;11.116;2023-07-24T07:39:29;23.83;;;19.55;;
21741;SDS011;11033;47.490;11.116;2023-07-24T07:41:54;21.43;;;18.93;;
21741;SDS011;11033;47.490;11.116;2023-07-24T07:44:19;21.48;;;19.33;;
21741;SDS011;11033;47.490;11.116;2023-07-24T07:46:45;23.83;;;21.17;;
21741;SDS011;11033;47.490;11.116;2023-07-24T07:49:10;25.43;;;20.57;;
21741;SDS011;11033;47.490;11.116;2023-07-24T07:51:35;22.30;;;18.83;;
21741;SDS011;11033;47.490;11.116;2023-07-24T07:54:00;24.10;;;20.90;;
21741;SDS011;11033;47.490;11.116;2023-07-24T07:56:25;23.77;;;20.67;;
21741;SDS011;11033;47.490;11.116;2023-07-24T07:58:50;23.67;;;20.33;;
21741;SDS011;11033;47.490;11.116;2023-07-24T08:01:16;23.23;;;20.77;;
21741;SDS011;11033;47.490;11.116;2023-07-24T08:03:41;25.07;;;21.33;;
21741;SDS011;11033;47.490;11.116;2023-07-24T08:06:06;23.08;;;20.58;;
21741;SDS011;11033;47.490;11.116;2023-07-24T08:08:31;22.50;;;20.27;;
21741;SDS011;11033;47.490;11.116;2023-07-24T08:10:56;22.60;;;20.30;;
21741;SDS011;11033;47.490;11.116;2023-07-24T08:13:22;23.63;;;20.43;;
21741;SDS011;11033;47.490;11.116;2023-07-24T08:15:47;22.67;;;20.50;;
21741;SDS011;11033;47.490;11.116;2023-07-24T08:18:12;23.83;;;21.35;;
21741;SDS011;11033;47.490;11.116;2023-07-24T08:20:38;21.23;;;19.07;;
21741;SDS011;11033;47.490;11.116;2023-07-24T08:23:03;22.85;;;20.55;;
21741;SDS011;11033;47.490;11.116;2023-07-24T08:25:31;22.73;;;20.42;;
21741;SDS011;11033;47.490;11.116;2023-07-24T08:27:56;23.90;;;21.27;;
21741;SDS011;11033;47.490;11.116;2023-07-24T08:30:21;23.13;;;20.57;;
21741;SDS011;11033;47.490;11.116;2023-07-24T08:32:46;24.00;;;21.60;;
21741;SDS011;11033;47.490;11.116;2023-07-24T08:35:13;23.65;;;21.15;;
21741;SDS011;11033;47.490;11.116;2023-07-24T08:37:42;27.83;;;22.27;;
21741;SDS011;11033;47.490;11.116;2023-07-24T08:40:07;21.75;;;18.92;;
21741;SDS011;11033;47.490;11.116;2023-07-24T08:42:32;21.00;;;18.63;;
21741;SDS011;11033;47.490;11.116;2023-07-24T08:44:58;19.15;;;17.25;;
21741;SDS011;11033;47.490;11.116;2023-07-24T08:47:23;18.73;;;16.97;;
21741;SDS011;11033;47.490;11.116;2023-07-24T08:49:49;19.63;;;17.85;;
21741;SDS011;11033;47.490;11.116;2023-07-24T08:52:15;19.98;;;18.00;;
21741;SDS011;11033;47.490;11.116;2023-07-24T08:54:41;18.20;;;16.17;;
21741;SDS011;11033;47.490;11.116;2023-07-24T08:57:06;18.80;;;16.92;;
21741;SDS011;11033;47.490;11.116;2023-07-24T08:59:32;18.58;;;16.70;;
21741;SDS011;11033;47.490;11.116;2023-07-24T09:01:57;17.83;;;16.23;;
21741;SDS011;11033;47.490;11.116;2023-07-24T09:04:23;19.20;;;17.37;;
21741;SDS011;11033;47.490;11.116;2023-07-24T09:06:49;18.77;;;16.98;;
21741;SDS011;11033;47.490;11.116;2023-07-24T09:09:14;18.80;;;17.00;;
21741;SDS011;11033;47.490;11.116;2023-07-24T09:11:50;18.05;;;16.42;;
21741;SDS011;11033;47.490;11.116;2023-07-24T09:14:24;19.23;;;17.35;;
21741;SDS011;11033;47.490;11.116;2023-07-24T09:17:01;18.27;;;16.33;;
21741;SDS011;11033;47.490;11.116;2023-07-24T09:19:26;19.00;;;17.15;;
21741;SDS011;11033;47.490;11.116;2023-07-24T09:21:51;19.43;;;16.70;;
21741;SDS011;11033;47.490;11.116;2023-07-24T09:24:16;19.03;;;17.17;;
21741;SDS011;11033;47.490;11.116;2023-07-24T09:26:51;21.90;;;17.60;;
21741;SDS011;11033;47.490;11.116;2023-07-24T09:29:17;18.70;;;16.83;;
21741;SDS011;11033;47.490;11.116;2023-07-24T09:31:42;18.05;;;16.48;;
21741;SDS011;11033;47.490;11.116;2023-07-24T09:34:14;20.35;;;18.23;;
21741;SDS011;11033;47.490;11.116;2023-07-24T09:36:40;18.80;;;17.00;;
21741;SDS011;11033;47.490;11.116;2023-07-24T09:39:05;19.73;;;17.93;;
21741;SDS011;11033;47.490;11.116;2023-07-24T09:41:33;18.35;;;16.67;;
21741;SDS011;11033;47.490;11.116;2023-07-24T09:43:58;20.80;;;18.40;;
21741;SDS011;11033;47.490;11.116;2023-07-24T09:46:23;19.08;;;17.20;;
21741;SDS011;11033;47.490;11.116;2023-07-24T09:48:49;20.15;;;18.35;;
21741;SDS011;11033;47.490;11.116;2023-07-24T09:51:14;21.00;;;19.00;;
21741;SDS011;11033;47.490;11.116;2023-07-24T09:53:43;19.35;;;17.65;;
21741;SDS011;11033;47.490;11.116;2023-07-24T09:56:09;23.63;;;18.75;;
21741;SDS011;11033;47.490;11.116;2023-07-24T09:58:38;19.48;;;17.60;;
21741;SDS011;11033;47.490;11.116;2023-07-24T10:01:04;20.80;;;18.70;;
21741;SDS011;11033;47.490;11.116;2023-07-24T10:03:31;19.92;;;18.05;;
21741;SDS011;11033;47.490;11.116;2023-07-24T10:05:56;19.30;;;17.50;;
21741;SDS011;11033;47.490;11.116;2023-07-24T10:08:21;19.80;;;17.83;;
21741;SDS011;11033;47.490;11.116;2023-07-24T10:10:46;18.83;;;17.13;;
21741;SDS011;11033;47.490;11.116;2023-07-24T10:13:12;20.77;;;18.30;;
21741;SDS011;11033;47.490;11.116;2023-07-24T10:15:40;19.95;;;18.15;;
21741;SDS011;11033;47.490;11.116;2023-07-24T10:18:06;19.20;;;17.45;;
21741;SDS011;11033;47.490;11.116;2023-07-24T10:20:32;20.15;;;18.23;;
21741;SDS011;11033;47.490;11.116;2023-07-24T10:23:00;19.55;;;17.65;;
21741;SDS011;11033;47.490;11.116;2023-07-24T10:25:28;19.52;;;17.70;;
21741;SDS011;11033;47.490;11.116;2023-07-24T10:27:56;18.85;;;17.23;;
21741;SDS011;11033;47.490;11.116;2023-07-24T10:30:28;19.52;;;17.88;;
21741;SDS011;11033;47.490;11.116;2023-07-24T10:32:53;19.55;;;17.75;;
21741;SDS011;11033;47.490;11.116;2023-07-24T10:35:19;18.60;;;17.10;;
21741;SDS011;11033;47.490;11.116;2023-07-24T10:37:46;19.00;;;17.45;;
21741;SDS011;11033;47.490;11.116;2023-07-24T10:40:20;17.80;;;16.30;;
21741;SDS011;11033;47.490;11.116;2023-07-24T10:42:46;18.75;;;17.05;;
21741;SDS011;11033;47.490;11.116;2023-07-24T10:45:11;19.77;;;17.87;;
21741;SDS011;11033;47.490;11.116;2023-07-24T10:47:36;19.30;;;17.60;;
21741;SDS011;11033;47.490;11.116;2023-07-24T10:50:02;18.93;;;17.33;;
21741;SDS011;11033;47.490;11.116;2023-07-24T10:52:31;18.90;;;17.13;;
21741;SDS011;11033;47.490;11.116;2023-07-24T10:54:59;18.60;;;16.80;;
21741;SDS011;11033;47.490;11.116;2023-07-24T10:57:25;18.17;;;16.58;;
21741;SDS011;11033;47.490;11.116;2023-07-24T10:59:51;17.77;;;16.17;;
21741;SDS011;11033;47.490;11.116;2023-07-24T11:02:16;16.17;;;14.88;;
21741;SDS011;11033;47.490;11.116;2023-07-24T11:04:41;15.98;;;14.73;;
21741;SDS011;11033;47.490;11.116;2023-07-24T11:07:07;14.77;;;13.57;;
21741;SDS011;11033;47.490;11.116;2023-07-24T11:09:38;15.07;;;13.87;;
21741;SDS011;11033;47.490;11.116;2023-07-24T11:14:45;14.55;;;13.35;;
21741;SDS011;11033;47.490;11.116;2023-07-24T11:17:10;15.13;;;13.80;;
21741;SDS011;11033;47.490;11.116;2023-07-24T11:19:35;14.73;;;13.53;;
21741;SDS011;11033;47.490;11.116;2023-07-24T11:22:01;15.70;;;14.40;;
21741;SDS011;11033;47.490;11.116;2023-07-24T11:24:28;14.27;;;13.20;;
21741;SDS011;11033;47.490;11.116;2023-07-24T11:26:53;14.03;;;12.83;;
21741;SDS011;11033;47.490;11.116;2023-07-24T11:29:18;16.37;;;14.87;;
21741;SDS011;11033;47.490;11.116;2023-07-24T11:31:44;13.47;;;12.47;;
21741;SDS011;11033;47.490;11.116;2023-07-24T11:34:09;14.43;;;13.33;;
21741;SDS011;11033;47.490;11.116;2023-07-24T11:36:34;13.50;;;12.50;;
21741;SDS011;11033;47.490;11.116;2023-07-24T11:38:59;14.40;;;13.18;;
21741;SDS011;11033;47.490;11.116;2023-07-24T11:41:25;14.13;;;12.80;;
21741;SDS011;11033;47.490;11.116;2023-07-24T11:43:50;13.95;;;12.85;;
21741;SDS011;11033;47.490;11.116;2023-07-24T11:46:25;14.90;;;13.80;;
21741;SDS011;11033;47.490;11.116;2023-07-24T11:48:50;14.38;;;13.38;;
21741;SDS011;11033;47.490;11.116;2023-07-24T11:51:18;15.00;;;13.90;;
21741;SDS011;11033;47.490;11.116;2023-07-24T11:53:43;15.40;;;14.20;;
21741;SDS011;11033;47.490;11.116;2023-07-24T11:56:13;15.32;;;13.77;;
21741;SDS011;11033;47.490;11.116;2023-07-24T11:58:38;14.40;;;13.18;;
21741;SDS011;11033;47.490;11.116;2023-07-24T12:01:03;14.68;;;13.50;;
21741;SDS011;11033;47.490;11.116;2023-07-24T12:03:28;14.47;;;13.27;;
21741;SDS011;11033;47.490;11.116;2023-07-24T12:05:54;14.35;;;13.13;;
21741;SDS011;11033;47.490;11.116;2023-07-24T12:08:20;16.40;;;15.10;;
21741;SDS011;11033;47.490;11.116;2023-07-24T12:10:48;15.32;;;14.07;;
21741;SDS011;11033;47.490;11.116;2023-07-24T12:13:14;15.23;;;13.70;;
21741;SDS011;11033;47.490;11.116;2023-07-24T12:15:39;16.37;;;14.93;;
21741;SDS011;11033;47.490;11.116;2023-07-24T12:18:04;15.30;;;14.10;;
21741;SDS011;11033;47.490;11.116;2023-07-24T12:20:30;14.55;;;13.35;;
21741;SDS011;11033;47.490;11.116;2023-07-24T12:22:56;14.80;;;13.65;;
21741;SDS011;11033;47.490;11.116;2023-07-24T12:25:21;13.63;;;12.32;;
21741;SDS011;11033;47.490;11.116;2023-07-24T12:27:47;14.68;;;13.57;;
21741;SDS011;11033;47.490;11.116;2023-07-24T12:30:12;14.15;;;12.98;;
21741;SDS011;11033;47.490;11.116;2023-07-24T12:32:38;13.80;;;12.75;;
21741;SDS011;11033;47.490;11.116;2023-07-24T12:35:03;15.57;;;14.38;;
21741;SDS011;11033;47.490;11.116;2023-07-24T12:37:29;15.18;;;13.98;;
21741;SDS011;11033;47.490;11.116;2023-07-24T12:39:54;14.50;;;13.33;;
21741;SDS011;11033;47.490;11.116;2023-07-24T12:42:19;14.53;;;13.43;;
21741;SDS011;11033;47.490;11.116;2023-07-24T12:44:45;14.93;;;13.53;;
21741;SDS011;11033;47.490;11.116;2023-07-24T12:47:10;14.50;;;13.40;;
21741;SDS011;11033;47.490;11.116;2023-07-24T12:49:36;14.32;;;13.23;;
21741;SDS011;11033;47.490;11.116;2023-07-24T12:52:01;15.23;;;13.70;;
21741;SDS011;11033;47.490;11.116;2023-07-24T12:54:26;14.40;;;13.00;;
21741;SDS011;11033;47.490;11.116;2023-07-24T12:56:52;13.73;;;12.63;;
21741;SDS011;11033;47.490;11.116;2023-07-24T12:59:17;15.67;;;14.37;;
21741;SDS011;11033;47.490;11.116;2023-07-24T13:01:42;14.48;;;13.43;;
21741;SDS011;11033;47.490;11.116;2023-07-24T13:04:08;14.00;;;12.87;;
21741;SDS011;11033;47.490;11.116;2023-07-24T13:06:33;13.70;;;12.70;;
21741;SDS011;11033;47.490;11.116;2023-07-24T13:08:58;13.38;;;12.38;;
21741;SDS011;11033;47.490;11.116;2023-07-24T13:11:24;13.47;;;12.47;;
21741;SDS011;11033;47.490;11.116;2023-07-24T13:13:49;13.00;;;12.13;;
21741;SDS011;11033;47.490;11.116;2023-07-24T13:16:15;9.38;;;8.82;;
21741;SDS011;11033;47.490;11.116;2023-07-24T13:18:40;9.32;;;8.70;;
21741;SDS011;11033;47.490;11.116;2023-07-24T13:21:05;8.53;;;7.83;;
21741;SDS011;11033;47.490;11.116;2023-07-24T13:23:32;8.50;;;7.90;;
21741;SDS011;11033;47.490;11.116;2023-07-24T13:25:57;8.17;;;7.60;;
21741;SDS011;11033;47.490;11.116;2023-07-24T13:28:22;8.37;;;7.70;;
21741;SDS011;11033;47.490;11.116;2023-07-24T13:30:48;8.50;;;7.88;;
21741;SDS011;11033;47.490;11.116;2023-07-24T13:33:13;8.20;;;7.70;;
21741;SDS011;11033;47.490;11.116;2023-07-24T13:35:38;8.37;;;7.87;;
21741;SDS011;11033;47.490;11.116;2023-07-24T13:38:03;8.20;;;7.70;;
21741;SDS011;11033;47.490;11.116;2023-07-24T13:40:28;8.90;;;8.43;;
21741;SDS011;11033;47.490;11.116;2023-07-24T13:42:53;8.13;;;7.73;;
21741;SDS011;11033;47.490;11.116;2023-07-24T13:45:19;9.13;;;8.63;;
21741;SDS011;11033;47.490;11.116;2023-07-24T13:47:44;9.17;;;8.67;;
21741;SDS011;11033;47.490;11.116;2023-07-24T13:50:09;9.57;;;8.97;;
21741;SDS011;11033;47.490;11.116;2023-07-24T13:52:34;10.70;;;9.90;;
21741;SDS011;11033;47.490;11.116;2023-07-24T13:54:59;10.00;;;9.27;;
21741;SDS011;11033;47.490;11.116;2023-07-24T13:57:25;11.20;;;10.30;;
21741;SDS011;11033;47.490;11.116;2023-07-24T13:59:50;10.83;;;10.13;;
21741;SDS011;11033;47.490;11.116;2023-07-24T14:02:15;10.97;;;10.17;;
21741;SDS011;11033;47.490;11.116;2023-07-24T14:04:41;10.27;;;9.57;;